createdAt,value
2023-03-12T00:00:15.593Z,10.27
2023-03-12T00:00:38.654Z,10.25
2023-03-12T00:01:01.436Z,10.24
2023-03-12T00:01:30.665Z,10.20
2023-03-12T00:01:52.363Z,10.20
2023-03-12T00:02:14.011Z,10.16
2023-03-12T00:02:35.936Z,10.17
2023-03-12T00:02:59.883Z,10.16
2023-03-12T00:03:21.519Z,10.20
2023-03-12T00:03:43.703Z,10.18
2023-03-12T00:04:06.947Z,10.21
2023-03-12T00:04:29.002Z,10.17
2023-03-12T00:04:50.597Z,10.19
2023-03-12T00:05:12.205Z,10.17
2023-03-12T00:05:34.941Z,10.19
2023-03-12T00:05:56.474Z,10.11
2023-03-12T00:06:19.591Z,10.14
2023-03-12T00:06:41.253Z,10.12
2023-03-12T00:07:06.493Z,10.12
2023-03-12T00:07:28.130Z,10.13
2023-03-12T00:07:50.236Z,10.10
2023-03-12T00:08:13.079Z,10.12
2023-03-12T00:08:35.939Z,10.13
2023-03-12T00:08:58.213Z,10.15
2023-03-12T00:09:19.847Z,10.08
2023-03-12T00:09:41.414Z,10.11
2023-03-12T00:10:04.409Z,10.17
2023-03-12T00:10:26.408Z,10.17
2023-03-12T00:10:48.037Z,10.17
2023-03-12T00:11:11.683Z,10.15
2023-03-12T00:11:34.453Z,10.16
2023-03-12T00:11:56.074Z,10.09
2023-03-12T00:12:17.728Z,10.10
2023-03-12T00:12:40.349Z,9.89
2023-03-12T00:13:02.163Z,9.96
2023-03-12T00:13:23.857Z,9.99
2023-03-12T00:13:49.446Z,9.98
2023-03-12T00:14:12.225Z,10.04
2023-03-12T00:14:33.880Z,10.06
2023-03-12T00:14:55.504Z,10.07
2023-03-12T00:15:17.277Z,10.09
2023-03-12T00:15:41.744Z,9.91
2023-03-12T00:16:05.896Z,10.09
2023-03-12T00:16:28.262Z,9.97
2023-03-12T00:16:50.877Z,9.98
2023-03-12T00:17:12.553Z,9.97
2023-03-12T00:17:34.729Z,9.92
2023-03-12T00:17:56.367Z,9.93
2023-03-12T00:18:19.332Z,9.97
2023-03-12T00:18:43.666Z,9.98
2023-03-12T00:19:05.373Z,9.86
2023-03-12T00:19:28.954Z,9.96
2023-03-12T00:19:53.252Z,9.96
2023-03-12T00:20:15.198Z,10.00
2023-03-12T00:20:36.882Z,9.92
2023-03-12T00:20:58.641Z,9.98
2023-03-12T00:21:22.413Z,10.01
2023-03-12T00:21:44.009Z,10.01
2023-03-12T00:22:05.666Z,10.00
2023-03-12T00:22:27.765Z,10.03
2023-03-12T00:22:50.917Z,10.02
2023-03-12T00:23:12.513Z,10.05
2023-03-12T00:23:34.756Z,10.02
2023-03-12T00:23:56.656Z,9.93
2023-03-12T00:24:18.518Z,10.05
2023-03-12T00:24:41.171Z,10.04
2023-03-12T00:25:03.303Z,10.05
2023-03-12T00:25:25.002Z,10.00
2023-03-12T00:25:46.992Z,9.87
2023-03-12T00:26:11.878Z,9.84
2023-03-12T00:26:33.482Z,9.86
2023-03-12T00:26:55.169Z,9.86
2023-03-12T00:27:16.799Z,9.97
2023-03-12T00:27:39.401Z,9.98
2023-03-12T00:28:01.038Z,10.01
2023-03-12T00:28:22.767Z,10.02
2023-03-12T00:28:45.074Z,10.03
2023-03-12T00:29:07.645Z,10.05
2023-03-12T00:29:29.320Z,10.02
2023-03-12T00:29:51.063Z,10.05
2023-03-12T00:30:13.246Z,10.02
2023-03-12T00:30:36.005Z,10.05
2023-03-12T00:30:58.320Z,10.05
2023-03-12T00:31:22.324Z,10.00
2023-03-12T00:31:44.030Z,10.01
2023-03-12T00:32:07.631Z,10.05
2023-03-12T00:32:29.414Z,10.04
2023-03-12T00:32:51.224Z,10.02
2023-03-12T00:33:13.266Z,10.05
2023-03-12T00:33:36.281Z,10.03
2023-03-12T00:33:59.368Z,10.05
2023-03-12T00:34:21.007Z,10.06
2023-03-12T00:34:42.897Z,10.04
2023-03-12T00:35:06.098Z,10.09
2023-03-12T00:35:28.826Z,9.93
2023-03-12T00:35:50.742Z,10.09
2023-03-12T00:36:12.571Z,10.11
2023-03-12T00:36:34.237Z,10.06
2023-03-12T00:36:56.814Z,10.14
2023-03-12T00:37:18.529Z,10.09
2023-03-12T00:37:40.148Z,10.12
2023-03-12T00:38:01.746Z,10.13
2023-03-12T00:38:24.362Z,10.05
2023-03-12T00:38:45.994Z,10.01
2023-03-12T00:39:07.759Z,9.98
2023-03-12T00:39:29.359Z,9.91
2023-03-12T00:39:51.018Z,9.92
2023-03-12T00:40:13.925Z,9.86
2023-03-12T00:40:36.503Z,9.77
2023-03-12T00:40:58.133Z,9.90
2023-03-12T00:41:20.722Z,9.90
2023-03-12T00:41:43.323Z,9.85
2023-03-12T00:42:05.411Z,9.85
2023-03-12T00:42:27.255Z,9.83
2023-03-12T00:42:48.879Z,9.74
2023-03-12T00:43:10.886Z,9.63
2023-03-12T00:43:33.479Z,9.76
2023-03-12T00:43:55.137Z,9.80
2023-03-12T00:44:16.842Z,9.78
2023-03-12T00:44:38.613Z,9.75
2023-03-12T00:45:01.180Z,9.86
2023-03-12T00:45:22.855Z,9.90
2023-03-12T00:45:45.417Z,9.86
2023-03-12T00:46:07.064Z,9.88
2023-03-12T00:46:29.765Z,9.84
2023-03-12T00:46:51.516Z,9.90
2023-03-12T00:47:13.770Z,9.90
2023-03-12T00:47:35.395Z,9.90
2023-03-12T00:47:57.088Z,9.89
2023-03-12T00:48:19.661Z,9.71
2023-03-12T00:48:42.703Z,9.79
2023-03-12T00:49:04.485Z,9.78
2023-03-12T00:49:27.351Z,9.79
2023-03-12T00:49:48.997Z,9.80
2023-03-12T00:50:11.095Z,9.80
2023-03-12T00:50:32.896Z,9.77
2023-03-12T00:50:55.551Z,9.80
2023-03-12T00:51:17.187Z,9.80
2023-03-12T00:51:38.855Z,9.82
2023-03-12T00:52:00.448Z,9.76
2023-03-12T00:52:23.001Z,9.88
2023-03-12T00:52:44.686Z,9.89
2023-03-12T00:53:06.464Z,9.90
2023-03-12T00:53:28.094Z,9.91
2023-03-12T00:53:50.753Z,9.92
2023-03-12T00:54:12.407Z,9.93
2023-03-12T00:54:34.040Z,9.81
2023-03-12T00:54:58.193Z,9.95
2023-03-12T00:55:20.971Z,9.96
2023-03-12T00:55:42.743Z,9.96
2023-03-12T00:56:06.596Z,9.94
2023-03-12T00:56:28.191Z,9.85
2023-03-12T00:56:50.811Z,9.85
2023-03-12T00:57:12.480Z,9.86
2023-03-12T00:57:34.346Z,9.84
2023-03-12T00:57:56.184Z,9.77
2023-03-12T00:58:17.758Z,9.71
2023-03-12T00:58:42.665Z,9.72
2023-03-12T00:59:04.301Z,9.74
2023-03-12T00:59:25.969Z,9.67
2023-03-12T00:59:47.558Z,9.66
2023-03-12T01:00:12.549Z,9.60
2023-03-12T01:00:34.305Z,9.60
2023-03-12T01:00:55.958Z,9.65
2023-03-12T01:01:17.870Z,9.63
2023-03-12T01:01:40.122Z,9.64
2023-03-12T01:02:02.736Z,9.66
2023-03-12T01:02:24.336Z,9.68
2023-03-12T01:02:46.000Z,9.67
2023-03-12T01:03:07.684Z,9.65
2023-03-12T01:03:30.314Z,9.65
2023-03-12T01:03:55.603Z,9.60
2023-03-12T01:04:17.939Z,9.64
2023-03-12T01:04:39.573Z,9.62
2023-03-12T01:05:01.245Z,9.50
2023-03-12T01:05:24.086Z,9.65
2023-03-12T01:05:45.765Z,9.62
2023-03-12T01:06:08.079Z,9.63
2023-03-12T01:06:29.796Z,9.56
2023-03-12T01:06:52.394Z,9.56
2023-03-12T01:07:13.990Z,9.57
2023-03-12T01:07:36.043Z,9.59
2023-03-12T01:07:57.724Z,9.53
2023-03-12T01:08:20.677Z,9.50
2023-03-12T01:08:42.437Z,9.49
2023-03-12T01:09:05.276Z,9.54
2023-03-12T01:09:26.958Z,9.56
2023-03-12T01:09:49.753Z,9.56
2023-03-12T01:10:14.713Z,9.56
2023-03-12T01:10:37.654Z,9.59
2023-03-12T01:10:59.660Z,9.58
2023-03-12T01:11:22.866Z,9.57
2023-03-12T01:11:44.451Z,9.57
2023-03-12T01:12:06.669Z,9.62
2023-03-12T01:12:28.283Z,9.61
2023-03-12T01:12:51.073Z,9.62
2023-03-12T01:13:13.047Z,9.64
2023-03-12T01:13:34.700Z,9.50
2023-03-12T01:13:56.330Z,9.54
2023-03-12T01:14:18.905Z,9.59
2023-03-12T01:14:40.509Z,9.61
2023-03-12T01:15:02.198Z,9.64
2023-03-12T01:15:23.975Z,9.61
2023-03-12T01:15:46.567Z,9.58
2023-03-12T01:16:08.206Z,9.64
2023-03-12T01:16:30.378Z,9.69
2023-03-12T01:16:53.101Z,9.61
2023-03-12T01:17:15.397Z,9.65
2023-03-12T01:17:37.489Z,9.69
2023-03-12T01:17:59.101Z,9.72
2023-03-12T01:18:20.885Z,9.70
2023-03-12T01:18:43.931Z,9.73
2023-03-12T01:19:06.929Z,9.70
2023-03-12T01:19:28.542Z,9.77
2023-03-12T01:19:50.160Z,9.72
2023-03-12T01:20:12.492Z,9.74
2023-03-12T01:20:35.047Z,9.74
2023-03-12T01:20:56.696Z,9.77
2023-03-12T01:21:18.286Z,9.75
2023-03-12T01:21:40.178Z,9.76
2023-03-12T01:22:02.867Z,9.69
2023-03-12T01:22:30.482Z,9.71
2023-03-12T01:23:36.563Z,9.74
2023-03-12T01:23:58.915Z,9.77
2023-03-12T01:24:20.784Z,9.76
2023-03-12T01:24:42.493Z,9.76
2023-03-12T01:25:05.545Z,9.76
2023-03-12T01:25:27.217Z,9.77
2023-03-12T01:25:49.432Z,9.63
2023-03-12T01:26:11.059Z,9.58
2023-03-12T01:26:33.850Z,9.61
2023-03-12T01:26:56.482Z,9.63
2023-03-12T01:27:18.304Z,9.53
2023-03-12T01:27:39.952Z,9.53
2023-03-12T01:28:03.035Z,9.54
2023-03-12T01:28:25.807Z,9.48
2023-03-12T01:28:47.648Z,9.50
2023-03-12T01:29:10.246Z,9.53
2023-03-12T01:29:31.822Z,9.51
2023-03-12T01:29:53.940Z,9.51
2023-03-12T01:30:15.796Z,9.56
2023-03-12T01:30:38.401Z,9.47
2023-03-12T01:31:06.770Z,9.45
2023-03-12T01:31:28.533Z,9.30
2023-03-12T01:31:50.428Z,9.13
2023-03-12T01:32:13.050Z,9.32
2023-03-12T01:32:34.801Z,9.39
2023-03-12T01:32:56.570Z,9.42
2023-03-12T01:33:18.458Z,9.41
2023-03-12T01:33:41.273Z,9.39
2023-03-12T01:34:03.073Z,9.45
2023-03-12T01:34:26.054Z,9.48
2023-03-12T01:34:47.734Z,9.59
2023-03-12T01:35:10.889Z,9.61
2023-03-12T01:35:36.553Z,9.63
2023-03-12T01:35:58.315Z,9.64
2023-03-12T01:36:22.294Z,9.69
2023-03-12T01:36:47.659Z,9.70
2023-03-12T01:37:09.266Z,9.75
2023-03-12T01:37:32.413Z,9.69
2023-03-12T01:37:55.855Z,9.57
2023-03-12T01:38:20.693Z,9.64
2023-03-12T01:38:42.341Z,9.53
2023-03-12T01:39:04.400Z,9.56
2023-03-12T01:39:26.088Z,9.53
2023-03-12T01:39:48.637Z,9.48
2023-03-12T01:40:14.815Z,9.46
2023-03-12T01:40:36.642Z,9.44
2023-03-12T01:40:59.146Z,9.54
2023-03-12T01:41:21.885Z,9.56
2023-03-12T01:41:43.809Z,9.53
2023-03-12T01:42:06.208Z,9.55
2023-03-12T01:42:28.842Z,9.56
2023-03-12T01:42:52.438Z,9.54
2023-03-12T01:43:25.045Z,9.62
2023-03-12T01:43:47.826Z,9.59
2023-03-12T01:44:14.803Z,9.53
2023-03-12T01:44:55.461Z,9.47
2023-03-12T01:46:07.228Z,9.47
2023-03-12T01:46:32.428Z,9.54
2023-03-12T01:46:54.423Z,9.56
2023-03-12T01:47:19.471Z,9.37
2023-03-12T01:47:41.483Z,9.42
2023-03-12T01:48:05.462Z,9.40
2023-03-12T01:48:27.970Z,9.35
2023-03-12T01:48:54.743Z,9.35
2023-03-12T01:49:21.100Z,9.35
2023-03-12T01:49:45.980Z,9.41
2023-03-12T01:50:08.373Z,9.41
2023-03-12T01:50:30.134Z,9.44
2023-03-12T01:50:51.992Z,9.46
2023-03-12T01:51:17.371Z,9.42
2023-03-12T01:51:42.585Z,9.42
2023-03-12T01:52:07.378Z,9.44
2023-03-12T01:52:37.986Z,9.43
2023-03-12T01:53:00.371Z,9.37
2023-03-12T01:53:22.879Z,9.43
2023-03-12T01:53:47.742Z,9.43
2023-03-12T01:54:15.297Z,9.44
2023-03-12T01:54:41.143Z,9.45
2023-03-12T01:55:06.886Z,9.36
2023-03-12T01:55:31.802Z,9.33
2023-03-12T01:55:54.366Z,9.34
2023-03-12T01:56:19.005Z,9.34
2023-03-12T01:56:41.493Z,9.37
2023-03-12T01:57:09.209Z,9.33
2023-03-12T01:57:36.139Z,9.35
2023-03-12T01:57:58.665Z,9.35
2023-03-12T01:58:22.126Z,9.38
2023-03-12T01:58:47.225Z,9.36
2023-03-12T01:59:15.074Z,9.39
2023-03-12T01:59:42.507Z,9.31
2023-03-12T02:00:08.842Z,9.47
2023-03-12T02:00:38.168Z,9.54
2023-03-12T02:01:00.579Z,9.53
2023-03-12T02:01:23.006Z,9.61
2023-03-12T02:01:46.253Z,9.64
2023-03-12T02:02:08.625Z,9.68
2023-03-12T02:02:30.617Z,9.69
2023-03-12T02:03:00.442Z,9.60
2023-03-12T02:03:26.754Z,9.63
2023-03-12T02:03:53.874Z,9.58
2023-03-12T02:04:19.610Z,9.60
2023-03-12T02:04:46.923Z,9.49
2023-03-12T02:05:19.530Z,9.48
2023-03-12T02:05:47.552Z,9.47
2023-03-12T02:06:14.207Z,9.51
2023-03-12T02:06:43.741Z,9.54
2023-03-12T02:07:08.187Z,9.57
2023-03-12T02:07:29.791Z,9.64
2023-03-12T02:07:51.887Z,9.69
2023-03-12T02:08:16.354Z,9.65
2023-03-12T02:08:42.474Z,9.67
2023-03-12T02:09:07.285Z,9.69
2023-03-12T02:09:29.673Z,9.74
2023-03-12T02:09:52.572Z,9.72
2023-03-12T02:10:14.169Z,9.73
2023-03-12T02:10:35.823Z,9.61
2023-03-12T02:10:57.527Z,9.63
2023-03-12T02:11:20.295Z,9.61
2023-03-12T02:11:42.015Z,9.53
2023-03-12T02:12:04.277Z,9.59
2023-03-12T02:12:26.014Z,9.60
2023-03-12T02:12:47.876Z,9.50
2023-03-12T02:13:11.238Z,9.51
2023-03-12T02:13:38.981Z,9.50
2023-03-12T02:14:00.754Z,9.58
2023-03-12T02:14:23.379Z,9.45
2023-03-12T02:14:45.569Z,9.46
2023-03-12T02:15:08.587Z,9.49
2023-03-12T02:15:30.290Z,9.52
2023-03-12T02:15:52.954Z,9.50
2023-03-12T02:16:15.162Z,9.52
2023-03-12T02:16:36.978Z,9.58
2023-03-12T02:16:59.924Z,9.56
2023-03-12T02:17:21.616Z,9.58
2023-03-12T02:17:43.442Z,9.62
2023-03-12T02:18:07.194Z,9.66
2023-03-12T02:18:30.217Z,9.62
2023-03-12T02:18:54.965Z,9.65
2023-03-12T02:19:23.544Z,9.72
2023-03-12T02:19:53.700Z,9.74
2023-03-12T02:20:21.098Z,9.82
2023-03-12T02:20:49.610Z,9.81
2023-03-12T02:21:20.355Z,9.81
2023-03-12T02:21:42.259Z,9.73
2023-03-12T02:22:05.006Z,9.44
2023-03-12T02:22:26.754Z,9.49
2023-03-12T02:22:58.429Z,9.53
2023-03-12T02:23:28.941Z,9.51
2023-03-12T02:24:00.710Z,9.54
2023-03-12T02:24:31.810Z,9.54
2023-03-12T02:25:03.655Z,9.54
2023-03-12T02:25:30.954Z,9.57
2023-03-12T02:25:55.127Z,9.60
2023-03-12T02:26:19.618Z,9.59
2023-03-12T02:26:41.622Z,9.55
2023-03-12T02:27:05.845Z,9.53
2023-03-12T02:27:28.900Z,9.50
2023-03-12T02:27:51.732Z,9.49
2023-03-12T02:28:15.685Z,9.57
2023-03-12T02:28:43.827Z,9.57
2023-03-12T02:29:09.526Z,9.58
2023-03-12T02:29:34.185Z,9.58
2023-03-12T02:29:55.925Z,9.61
2023-03-12T02:30:19.442Z,9.62
2023-03-12T02:30:46.239Z,9.61
2023-03-12T02:31:09.961Z,9.63
2023-03-12T02:31:43.296Z,9.60
2023-03-12T02:32:09.205Z,9.61
2023-03-12T02:32:36.046Z,9.64
2023-03-12T02:32:59.825Z,9.64
2023-03-12T02:33:21.501Z,9.54
2023-03-12T02:33:43.308Z,9.59
2023-03-12T02:34:05.887Z,9.65
2023-03-12T02:34:27.701Z,9.67
2023-03-12T02:34:50.638Z,9.66
2023-03-12T02:35:14.330Z,9.67
2023-03-12T02:35:37.842Z,9.69
2023-03-12T02:35:59.635Z,9.71
2023-03-12T02:36:22.290Z,9.70
2023-03-12T02:36:43.897Z,9.70
2023-03-12T02:37:06.708Z,9.69
2023-03-12T02:37:28.427Z,9.58
2023-03-12T02:37:52.644Z,9.59
2023-03-12T02:38:37.989Z,9.56
2023-03-12T02:39:00.669Z,9.46
2023-03-12T02:39:22.668Z,9.45
2023-03-12T02:39:51.631Z,9.50
2023-03-12T02:40:18.709Z,9.57
2023-03-12T02:40:46.819Z,9.55
2023-03-12T02:41:18.702Z,9.63
2023-03-12T02:41:43.691Z,9.66
2023-03-12T02:42:05.749Z,9.65
2023-03-12T02:42:27.466Z,9.66
2023-03-12T02:42:49.437Z,9.70
2023-03-12T02:43:12.538Z,9.73
2023-03-12T02:43:35.142Z,9.73
2023-03-12T02:44:02.252Z,9.74
2023-03-12T02:44:26.786Z,9.72
2023-03-12T02:44:48.669Z,9.70
2023-03-12T02:45:10.734Z,9.70
2023-03-12T02:45:34.024Z,9.73
2023-03-12T02:45:56.997Z,9.74
2023-03-12T02:46:19.044Z,9.75
2023-03-12T02:46:43.710Z,9.76
2023-03-12T02:47:05.790Z,9.77
2023-03-12T02:47:28.469Z,9.75
2023-03-12T02:47:50.115Z,9.76
2023-03-12T02:48:11.729Z,9.81
2023-03-12T02:48:33.511Z,9.79
2023-03-12T02:48:56.174Z,9.83
2023-03-12T02:49:21.471Z,9.87
2023-03-12T02:49:43.158Z,9.84
2023-03-12T02:50:05.886Z,9.92
2023-03-12T02:50:27.754Z,9.93
2023-03-12T02:50:49.411Z,9.94
2023-03-12T02:51:12.145Z,9.94
2023-03-12T02:51:33.801Z,9.90
2023-03-12T02:51:56.131Z,9.89
2023-03-12T02:52:18.652Z,9.88
2023-03-12T02:52:40.353Z,9.80
2023-03-12T02:53:01.948Z,9.80
2023-03-12T02:53:23.543Z,9.81
2023-03-12T02:53:46.512Z,9.88
2023-03-12T02:54:09.662Z,9.86
2023-03-12T02:54:31.846Z,9.85
2023-03-12T02:54:53.453Z,9.89
2023-03-12T02:55:15.068Z,9.89
2023-03-12T02:55:36.780Z,9.86
2023-03-12T02:56:01.055Z,9.89
2023-03-12T02:56:23.541Z,9.90
2023-03-12T02:56:45.201Z,9.86
2023-03-12T02:57:06.805Z,9.87
2023-03-12T02:57:30.080Z,9.86
2023-03-12T02:57:51.896Z,9.80
2023-03-12T02:58:13.598Z,9.86
2023-03-12T02:58:36.226Z,9.85
2023-03-12T02:58:59.367Z,9.87
2023-03-12T02:59:25.234Z,9.81
2023-03-12T02:59:48.082Z,9.81
2023-03-12T03:00:12.604Z,9.77
2023-03-12T03:00:37.771Z,9.83
2023-03-12T03:00:59.473Z,9.89
2023-03-12T03:01:21.622Z,9.92
2023-03-12T03:01:43.359Z,9.94
2023-03-12T03:02:06.979Z,9.94
2023-03-12T03:02:28.649Z,9.94
2023-03-12T03:02:50.353Z,9.96
2023-03-12T03:03:12.079Z,9.95
2023-03-12T03:03:33.729Z,9.96
2023-03-12T03:03:56.577Z,9.81
2023-03-12T03:04:18.364Z,9.82
2023-03-12T03:04:40.634Z,9.87
2023-03-12T03:05:02.206Z,9.89
2023-03-12T03:05:23.990Z,9.88
2023-03-12T03:05:46.592Z,9.87
2023-03-12T03:06:08.610Z,9.87
2023-03-12T03:06:30.997Z,9.87
2023-03-12T03:06:52.852Z,9.90
2023-03-12T03:07:15.777Z,9.93
2023-03-12T03:07:37.864Z,9.92
2023-03-12T03:07:59.491Z,9.92
2023-03-12T03:08:21.302Z,9.96
2023-03-12T03:08:44.370Z,9.95
2023-03-12T03:09:06.080Z,9.96
2023-03-12T03:09:27.788Z,9.93
2023-03-12T03:09:49.528Z,9.97
2023-03-12T03:10:12.409Z,9.93
2023-03-12T03:10:34.268Z,9.94
2023-03-12T03:10:56.112Z,9.91
2023-03-12T03:11:19.487Z,9.91
2023-03-12T03:11:42.419Z,9.90
2023-03-12T03:12:05.033Z,9.89
2023-03-12T03:12:28.275Z,9.81
2023-03-12T03:12:51.566Z,9.73
2023-03-12T03:13:14.297Z,9.71
2023-03-12T03:13:35.965Z,9.75
2023-03-12T03:13:57.711Z,9.78
2023-03-12T03:14:19.385Z,9.82
2023-03-12T03:14:44.046Z,9.86
2023-03-12T03:15:08.699Z,9.89
2023-03-12T03:15:30.836Z,9.90
2023-03-12T03:15:52.747Z,9.93
2023-03-12T03:16:14.772Z,9.95
2023-03-12T03:16:37.607Z,9.91
2023-03-12T03:16:59.264Z,9.90
2023-03-12T03:17:23.332Z,9.84
2023-03-12T03:17:45.029Z,9.82
2023-03-12T03:18:07.681Z,9.86
2023-03-12T03:18:29.926Z,9.85
2023-03-12T03:18:51.738Z,9.87
2023-03-12T03:19:13.673Z,9.85
2023-03-12T03:19:36.297Z,9.85
2023-03-12T03:19:58.838Z,9.77
2023-03-12T03:20:21.357Z,9.75
2023-03-12T03:20:44.588Z,9.81
2023-03-12T03:21:09.324Z,9.85
2023-03-12T03:21:31.977Z,9.90
2023-03-12T03:21:53.634Z,9.91
2023-03-12T03:22:15.317Z,9.93
2023-03-12T03:22:38.085Z,9.92
2023-03-12T03:22:59.739Z,9.72
2023-03-12T03:23:21.437Z,9.85
2023-03-12T03:23:44.092Z,9.77
2023-03-12T03:24:07.178Z,9.66
2023-03-12T03:24:28.929Z,9.66
2023-03-12T03:24:50.518Z,9.62
2023-03-12T03:25:12.199Z,9.62
2023-03-12T03:25:34.139Z,9.64
2023-03-12T03:25:57.294Z,9.67
2023-03-12T03:26:22.374Z,9.65
2023-03-12T03:26:44.572Z,9.74
2023-03-12T03:27:06.274Z,9.75
2023-03-12T03:27:29.049Z,9.71
2023-03-12T03:27:50.835Z,9.71
2023-03-12T03:28:12.512Z,9.71
2023-03-12T03:28:34.282Z,9.66
2023-03-12T03:28:56.939Z,9.69
2023-03-12T03:29:18.607Z,9.69
2023-03-12T03:29:40.271Z,9.67
2023-03-12T03:30:03.759Z,9.70
2023-03-12T03:30:29.070Z,9.65
2023-03-12T03:30:52.993Z,9.69
2023-03-12T03:31:15.313Z,9.65
2023-03-12T03:31:37.745Z,9.47
2023-03-12T03:32:00.509Z,9.47
2023-03-12T03:32:22.127Z,9.42
2023-03-12T03:32:43.842Z,9.49
2023-03-12T03:33:06.870Z,9.57
2023-03-12T03:33:29.929Z,9.62
2023-03-12T03:33:51.912Z,9.65
2023-03-12T03:34:13.633Z,9.70
2023-03-12T03:34:35.353Z,9.75
2023-03-12T03:34:57.119Z,9.77
2023-03-12T03:35:22.066Z,9.77
2023-03-12T03:35:43.711Z,9.74
2023-03-12T03:36:08.188Z,9.64
2023-03-12T03:36:34.115Z,9.68
2023-03-12T03:37:04.366Z,9.61
2023-03-12T03:37:26.745Z,9.56
2023-03-12T03:37:48.372Z,9.66
2023-03-12T03:38:10.058Z,9.60
2023-03-12T03:38:34.615Z,9.63
2023-03-12T03:38:56.372Z,9.62
2023-03-12T03:39:18.567Z,9.63
2023-03-12T03:39:41.727Z,9.62
2023-03-12T03:40:03.963Z,9.59
2023-03-12T03:40:25.669Z,9.61
2023-03-12T03:40:47.349Z,9.52
2023-03-12T03:41:09.881Z,9.36
2023-03-12T03:41:37.761Z,9.43
2023-03-12T03:41:59.505Z,9.44
2023-03-12T03:42:22.672Z,9.41
2023-03-12T03:42:45.261Z,9.45
2023-03-12T03:43:06.981Z,9.31
2023-03-12T03:43:29.269Z,9.34
2023-03-12T03:43:50.898Z,9.39
2023-03-12T03:44:15.637Z,9.42
2023-03-12T03:44:37.765Z,9.46
2023-03-12T03:44:59.391Z,9.49
2023-03-12T03:45:21.171Z,9.50
2023-03-12T03:45:44.740Z,9.41
2023-03-12T03:46:06.541Z,9.44
2023-03-12T03:46:32.433Z,9.48
2023-03-12T03:46:58.811Z,9.56
2023-03-12T03:47:21.374Z,9.58
2023-03-12T03:47:43.015Z,9.61
2023-03-12T03:48:05.815Z,9.59
2023-03-12T03:48:27.820Z,9.61
2023-03-12T03:48:50.889Z,9.61
2023-03-12T03:49:12.529Z,9.66
2023-03-12T03:49:35.967Z,9.59
2023-03-12T03:49:57.639Z,9.63
2023-03-12T03:50:20.395Z,9.64
2023-03-12T03:50:42.612Z,9.67
2023-03-12T03:51:06.419Z,9.69
2023-03-12T03:51:31.985Z,9.68
2023-03-12T03:51:59.933Z,9.64
2023-03-12T03:52:27.798Z,9.62
2023-03-12T03:52:49.443Z,9.55
2023-03-12T03:53:12.577Z,9.55
2023-03-12T03:53:35.811Z,9.58
2023-03-12T03:54:00.292Z,9.58
2023-03-12T03:54:22.264Z,9.61
2023-03-12T03:54:44.305Z,9.56
2023-03-12T03:55:07.379Z,9.59
2023-03-12T03:55:29.058Z,9.54
2023-03-12T03:55:50.790Z,9.54
2023-03-12T03:56:14.747Z,9.54
2023-03-12T03:56:43.048Z,9.46
2023-03-12T03:57:05.266Z,9.51
2023-03-12T03:57:27.244Z,9.50
2023-03-12T03:57:49.115Z,9.51
2023-03-12T03:58:10.940Z,9.49
2023-03-12T03:58:33.770Z,9.47
2023-03-12T03:58:55.539Z,9.46
2023-03-12T03:59:17.524Z,9.46
2023-03-12T03:59:39.632Z,9.41
2023-03-12T04:00:03.804Z,9.44
2023-03-12T04:00:35.301Z,9.46
2023-03-12T04:00:57.012Z,9.46
2023-03-12T04:01:19.530Z,9.51
2023-03-12T04:01:43.029Z,9.50
2023-03-12T04:02:04.737Z,9.57
2023-03-12T04:02:29.541Z,9.60
2023-03-12T04:02:51.284Z,9.62
2023-03-12T04:03:14.236Z,9.65
2023-03-12T04:03:36.244Z,9.70
2023-03-12T04:03:59.630Z,9.60
2023-03-12T04:04:21.555Z,9.65
2023-03-12T04:04:44.300Z,9.67
2023-03-12T04:05:06.600Z,9.70
2023-03-12T04:05:28.321Z,9.73
2023-03-12T04:05:55.062Z,9.71
2023-03-12T04:06:17.681Z,9.71
2023-03-12T04:06:39.966Z,9.73
2023-03-12T04:07:01.511Z,9.74
2023-03-12T04:07:23.398Z,9.76
2023-03-12T04:07:46.046Z,9.66
2023-03-12T04:08:08.758Z,9.61
2023-03-12T04:08:32.849Z,9.64
2023-03-12T04:08:55.447Z,9.60
2023-03-12T04:09:19.120Z,9.54
2023-03-12T04:09:40.892Z,9.60
2023-03-12T04:10:03.251Z,9.57
2023-03-12T04:10:25.414Z,9.53
2023-03-12T04:10:48.057Z,9.58
2023-03-12T04:11:11.851Z,9.58
2023-03-12T04:11:33.525Z,9.67
2023-03-12T04:11:57.778Z,9.60
2023-03-12T04:12:23.945Z,9.69
2023-03-12T04:12:45.754Z,9.72
2023-03-12T04:13:07.359Z,9.74
2023-03-12T04:13:29.093Z,9.71
2023-03-12T04:13:51.099Z,9.71
2023-03-12T04:14:16.612Z,9.74
2023-03-12T04:14:41.171Z,9.75
2023-03-12T04:15:04.326Z,9.77
2023-03-12T04:15:26.145Z,9.82
2023-03-12T04:15:49.504Z,9.85
2023-03-12T04:16:12.691Z,9.88
2023-03-12T04:16:34.420Z,9.89
2023-03-12T04:16:57.040Z,9.85
2023-03-12T04:17:20.109Z,9.87
2023-03-12T04:17:42.028Z,9.70
2023-03-12T04:18:03.959Z,9.87
2023-03-12T04:18:26.022Z,9.86
2023-03-12T04:18:48.969Z,9.90
2023-03-12T04:19:11.745Z,9.90
2023-03-12T04:19:33.475Z,9.88
2023-03-12T04:19:55.178Z,9.90
2023-03-12T04:20:18.284Z,9.86
2023-03-12T04:20:39.874Z,9.85
2023-03-12T04:21:03.273Z,9.79
2023-03-12T04:21:24.968Z,9.81
2023-03-12T04:21:47.690Z,9.83
2023-03-12T04:22:09.331Z,9.84
2023-03-12T04:22:31.050Z,9.85
2023-03-12T04:22:52.785Z,9.75
2023-03-12T04:23:15.394Z,9.79
2023-03-12T04:23:38.109Z,9.77
2023-03-12T04:24:00.220Z,9.83
2023-03-12T04:24:25.779Z,9.87
2023-03-12T04:24:48.428Z,9.70
2023-03-12T04:25:10.911Z,9.72
2023-03-12T04:25:32.885Z,9.74
2023-03-12T04:25:54.500Z,9.78
2023-03-12T04:26:17.413Z,9.80
2023-03-12T04:26:39.063Z,9.75
2023-03-12T04:27:03.041Z,9.55
2023-03-12T04:27:25.672Z,9.62
2023-03-12T04:27:47.329Z,9.67
2023-03-12T04:28:09.137Z,9.71
2023-03-12T04:28:33.624Z,9.75
2023-03-12T04:28:55.330Z,9.83
2023-03-12T04:29:17.926Z,9.87
2023-03-12T04:29:40.655Z,9.90
2023-03-12T04:30:02.474Z,9.91
2023-03-12T04:30:24.409Z,9.92
2023-03-12T04:30:55.680Z,9.94
2023-03-12T04:31:17.482Z,9.95
2023-03-12T04:31:48.224Z,9.89
2023-03-12T04:32:09.964Z,9.93
2023-03-12T04:32:32.639Z,9.95
2023-03-12T04:32:54.401Z,9.96
2023-03-12T04:33:16.011Z,9.93
2023-03-12T04:33:39.466Z,9.83
2023-03-12T04:34:02.933Z,9.90
2023-03-12T04:34:24.537Z,9.89
2023-03-12T04:34:48.327Z,9.90
2023-03-12T04:35:11.633Z,9.82
2023-03-12T04:35:34.385Z,9.86
2023-03-12T04:35:56.241Z,9.80
2023-03-12T04:36:18.687Z,9.81
2023-03-12T04:36:43.069Z,9.84
2023-03-12T04:37:05.658Z,9.83
2023-03-12T04:37:27.487Z,9.70
2023-03-12T04:37:49.170Z,9.69
2023-03-12T04:38:10.874Z,9.78
2023-03-12T04:38:33.481Z,9.83
2023-03-12T04:38:56.664Z,9.88
2023-03-12T04:39:22.506Z,9.90
2023-03-12T04:39:47.390Z,9.88
2023-03-12T04:40:11.305Z,9.86
2023-03-12T04:40:32.947Z,9.83
2023-03-12T04:40:58.794Z,9.56
2023-03-12T04:41:20.593Z,9.72
2023-03-12T04:41:51.302Z,9.73
2023-03-12T04:42:14.379Z,9.78
2023-03-12T04:42:37.971Z,9.80
2023-03-12T04:42:59.707Z,9.73
2023-03-12T04:43:21.542Z,9.70
2023-03-12T04:43:45.096Z,9.72
2023-03-12T04:44:07.925Z,9.70
2023-03-12T04:44:30.904Z,9.73
2023-03-12T04:44:53.577Z,9.77
2023-03-12T04:45:15.724Z,9.78
2023-03-12T04:45:40.366Z,9.84
2023-03-12T04:46:02.611Z,9.84
2023-03-12T04:46:25.378Z,9.67
2023-03-12T04:46:47.296Z,9.71
2023-03-12T04:47:12.860Z,9.77
2023-03-12T04:47:35.598Z,9.56
2023-03-12T04:47:57.903Z,9.60
2023-03-12T04:48:19.560Z,9.67
2023-03-12T04:48:42.448Z,9.51
2023-03-12T04:49:05.347Z,9.59
2023-03-12T04:49:29.486Z,9.63
2023-03-12T04:49:51.311Z,9.62
2023-03-12T04:50:13.903Z,9.72
2023-03-12T04:50:36.691Z,9.64
2023-03-12T04:50:58.435Z,9.64
2023-03-12T04:51:20.519Z,9.63
2023-03-12T04:51:42.462Z,9.67
2023-03-12T04:52:05.567Z,9.68
2023-03-12T04:52:27.410Z,9.76
2023-03-12T04:52:49.098Z,9.75
2023-03-12T04:53:11.109Z,9.61
2023-03-12T04:53:33.938Z,9.61
2023-03-12T04:53:56.396Z,9.36
2023-03-12T04:54:18.066Z,9.54
2023-03-12T04:54:40.713Z,9.51
2023-03-12T04:55:02.781Z,9.49
2023-03-12T04:55:24.377Z,9.66
2023-03-12T04:55:45.982Z,9.64
2023-03-12T04:56:08.919Z,9.47
2023-03-12T04:56:30.780Z,9.51
2023-03-12T04:56:52.971Z,9.49
2023-03-12T04:57:18.303Z,9.52
2023-03-12T04:57:40.878Z,9.36
2023-03-12T04:58:03.498Z,9.23
2023-03-12T04:58:25.576Z,9.33
2023-03-12T04:58:48.204Z,9.14
2023-03-12T04:59:10.062Z,9.22
2023-03-12T04:59:31.701Z,9.27
2023-03-12T04:59:53.597Z,9.33
2023-03-12T05:00:17.550Z,9.24
2023-03-12T05:00:41.666Z,9.25
2023-03-12T05:01:05.492Z,9.25
2023-03-12T05:01:29.461Z,9.19
2023-03-12T05:01:52.469Z,9.19
2023-03-12T05:02:18.798Z,9.25
2023-03-12T05:02:41.009Z,9.31
2023-03-12T05:03:03.829Z,9.27
2023-03-12T05:03:25.960Z,9.30
2023-03-12T05:03:47.831Z,9.34
2023-03-12T05:04:09.610Z,9.40
2023-03-12T05:04:33.725Z,9.34
2023-03-12T05:04:56.702Z,9.12
2023-03-12T05:05:19.065Z,9.05
2023-03-12T05:05:40.788Z,9.03
2023-03-12T05:06:02.409Z,9.12
2023-03-12T05:06:25.924Z,9.16
2023-03-12T05:06:48.459Z,9.20
2023-03-12T05:07:10.307Z,9.20